createdAt,value
2022-09-12T01:10:45.306Z,10.88
2022-09-12T01:15:35.100Z,11.10
2022-09-12T01:20:58.013Z,11.27
2022-09-12T01:26:05.919Z,12.07
2022-09-12T01:31:05.820Z,12.52
2022-09-12T01:36:12.887Z,13.52
2022-09-12T01:41:16.092Z,14.07
2022-09-12T01:46:14.830Z,15.80
2022-09-12T01:51:12.587Z,15.70
2022-09-12T01:56:10.391Z,14.80
2022-09-12T02:01:07.015Z,15.88
2022-09-12T02:06:06.296Z,14.38
2022-09-12T02:11:01.439Z,15.57
2022-09-12T02:15:56.689Z,14.55
2022-09-12T02:20:49.242Z,16.73
2022-09-12T02:25:48.644Z,14.63
2022-09-12T02:30:46.326Z,17.48
2022-09-12T02:35:44.071Z,14.90
2022-09-12T02:40:36.304Z,16.65
2022-09-12T02:45:32.598Z,18.83
2022-09-12T09:25:47.368Z,10.20
2022-09-12T09:30:42.897Z,7.77
2022-09-12T09:35:48.623Z,7.05
2022-09-12T09:40:49.378Z,6.45
2022-09-12T09:45:44.490Z,7.25
2022-09-12T09:50:41.021Z,6.57
2022-09-12T09:55:37.156Z,7.20
2022-09-12T10:00:32.157Z,7.38
2022-09-12T10:05:22.998Z,6.78
2022-09-12T10:10:23.434Z,8.45
2022-09-12T10:15:22.131Z,9.05
2022-09-12T10:20:34.559Z,7.78
2022-09-12T10:25:29.441Z,6.83
2022-09-12T10:30:26.285Z,6.13
2022-09-12T10:35:22.613Z,5.43
2022-09-12T10:40:29.170Z,5.47
2022-09-12T10:45:29.286Z,5.90
2022-09-12T10:50:35.682Z,4.40
2022-09-12T10:55:37.302Z,4.30
2022-09-12T11:00:30.663Z,3.88
2022-09-12T11:05:37.043Z,3.65
2022-09-12T11:10:42.579Z,3.28
2022-09-12T11:15:52.428Z,3.47
2022-09-12T11:20:55.328Z,4.00
2022-09-12T11:25:57.862Z,3.92
2022-09-12T11:30:59.349Z,3.87
2022-09-12T11:35:55.408Z,2.65
2022-09-12T11:40:54.967Z,2.17
2022-09-12T11:45:48.845Z,2.90
2022-09-12T11:50:39.445Z,1.83
2022-09-12T11:55:36.504Z,2.70
2022-09-12T12:00:35.609Z,2.10
2022-09-12T12:05:31.440Z,1.60
2022-09-12T12:10:39.332Z,1.30
2022-09-12T12:15:33.647Z,2.60
2022-09-12T12:20:26.296Z,1.70
2022-09-12T12:25:30.158Z,1.83
2022-09-12T12:31:06.328Z,1.20
2022-09-12T12:36:11.764Z,1.85
2022-09-12T12:41:33.112Z,1.70
2022-09-12T12:46:25.481Z,1.00
2022-09-12T12:51:35.749Z,1.30
2022-09-12T12:56:48.726Z,1.30
2022-09-12T13:01:42.049Z,4.00
2022-09-12T13:06:39.339Z,1.60
2022-09-12T13:11:40.646Z,1.10
2022-09-12T13:16:36.647Z,1.85
2022-09-12T13:21:27.750Z,1.13
2022-09-12T13:26:35.109Z,1.60
2022-09-12T13:31:34.981Z,1.23
2022-09-12T13:36:50.748Z,1.50
2022-09-12T13:42:05.714Z,1.63
2022-09-12T13:46:56.771Z,2.00
2022-09-12T13:51:49.894Z,1.10
2022-09-12T13:56:52.865Z,1.80
2022-09-12T14:01:49.027Z,2.30
2022-09-12T14:06:50.356Z,2.30
2022-09-12T14:11:41.610Z,1.05
2022-09-12T14:16:43.184Z,1.10
2022-09-12T14:21:38.492Z,1.30
2022-09-12T14:26:33.759Z,1.63
2022-09-12T14:31:33.001Z,1.60
2022-09-12T14:36:30.714Z,1.10
2022-09-12T14:41:28.163Z,1.00
2022-09-12T14:46:24.231Z,2.08
2022-09-12T14:51:26.855Z,0.98
2022-09-12T14:56:21.044Z,1.63
2022-09-12T15:01:33.148Z,1.75
2022-09-12T15:06:30.187Z,1.70
2022-09-12T15:11:24.541Z,1.30
2022-09-12T15:16:18.776Z,0.80
2022-09-12T15:21:12.337Z,1.97
2022-09-12T15:26:03.301Z,1.42
2022-09-12T15:30:59.376Z,1.77
2022-09-12T15:35:54.263Z,1.70
2022-09-12T15:40:47.349Z,1.75
2022-09-12T15:45:50.370Z,2.00
2022-09-12T15:50:44.951Z,1.40
2022-09-12T15:55:36.325Z,1.33
2022-09-12T16:00:30.039Z,1.35
2022-09-12T16:05:23.948Z,1.10
2022-09-12T16:10:24.807Z,1.07
2022-09-12T16:15:22.688Z,1.60
2022-09-12T16:20:14.339Z,1.38
2022-09-12T16:25:05.439Z,1.33
2022-09-12T16:29:59.164Z,0.90
2022-09-12T16:34:54.042Z,1.00
2022-09-12T16:39:44.663Z,1.93
2022-09-12T16:44:35.223Z,0.88
2022-09-12T16:49:28.360Z,1.60
2022-09-12T16:54:19.459Z,1.00
2022-09-12T16:59:10.117Z,1.77
2022-09-12T17:04:02.220Z,0.70
2022-09-12T17:09:01.076Z,1.90
2022-09-12T17:14:08.852Z,1.67
2022-09-12T17:18:59.893Z,0.70
2022-09-12T17:23:52.422Z,1.30
2022-09-12T17:28:46.641Z,1.30
2022-09-12T17:33:37.927Z,1.47
2022-09-12T17:38:30.028Z,1.20
2022-09-12T17:43:23.437Z,1.00
2022-09-12T17:48:16.613Z,1.60
2022-09-12T17:53:07.110Z,1.20
2022-09-12T17:57:59.807Z,1.60
2022-09-12T18:02:52.077Z,1.42
2022-09-12T18:07:45.678Z,1.50
2022-09-12T18:12:39.076Z,1.30
2022-09-12T18:17:30.551Z,1.80
2022-09-12T18:22:24.239Z,1.45
2022-09-12T18:27:16.682Z,1.10
2022-09-12T18:32:07.387Z,1.40
2022-09-12T18:36:59.257Z,1.40
2022-09-12T18:41:52.798Z,1.20
2022-09-12T18:46:46.143Z,1.42
2022-09-12T18:51:42.033Z,2.40
2022-09-12T18:56:39.962Z,4.83
2022-09-12T19:01:33.273Z,3.67
2022-09-12T19:06:28.749Z,3.45
2022-09-12T19:11:20.285Z,3.22
2022-09-12T19:16:14.846Z,3.43
2022-09-12T19:21:07.989Z,2.72
2022-09-12T19:26:06.429Z,3.78
2022-09-12T19:30:59.443Z,2.72
2022-09-12T19:35:50.222Z,3.25
2022-09-12T19:40:40.830Z,4.15
2022-09-12T19:45:33.786Z,3.65
2022-09-12T19:50:24.227Z,2.80
2022-09-12T19:55:15.036Z,3.03
2022-09-12T20:00:05.997Z,2.60
2022-09-12T20:05:01.976Z,3.58
2022-09-12T20:09:52.518Z,2.80
2022-09-12T20:14:45.762Z,3.20
2022-09-12T20:19:36.399Z,2.65
2022-09-12T20:24:30.036Z,2.87
2022-09-12T20:29:20.774Z,2.80
2022-09-12T20:34:17.006Z,3.85
2022-09-12T20:39:07.954Z,3.28
2022-09-12T20:44:04.464Z,3.03
2022-09-12T20:48:58.687Z,3.13
2022-09-12T20:53:50.628Z,3.58
2022-09-12T20:58:46.377Z,3.42
2022-09-12T21:03:44.301Z,3.63
2022-09-12T21:08:35.861Z,3.58
2022-09-12T21:13:27.674Z,5.10
2022-09-12T21:18:18.223Z,3.33
2022-09-12T21:23:11.138Z,3.67
2022-09-12T21:28:02.051Z,4.50
2022-09-12T21:32:55.225Z,3.90
2022-09-12T21:37:46.360Z,4.65
2022-09-12T21:42:39.523Z,3.60
2022-09-12T21:47:29.618Z,3.00
2022-09-12T21:52:20.399Z,3.13
2022-09-12T21:57:11.472Z,3.55
2022-09-12T22:02:06.528Z,2.67
2022-09-12T22:06:57.157Z,3.23
2022-09-12T22:11:47.675Z,3.50
2022-09-12T22:16:39.738Z,4.35
2022-09-12T22:21:32.768Z,4.72
2022-09-12T22:26:23.757Z,3.95
2022-09-12T22:31:15.478Z,3.85
2022-09-12T22:36:06.345Z,4.40
2022-09-12T22:40:59.423Z,3.90
2022-09-12T22:45:52.639Z,4.57
2022-09-12T22:50:43.131Z,4.10
2022-09-12T22:55:33.545Z,4.30
2022-09-12T23:00:30.725Z,4.38
2022-09-12T23:05:21.287Z,4.97
2022-09-12T23:10:13.047Z,4.93
2022-09-12T23:15:04.660Z,5.05
2022-09-12T23:19:57.586Z,4.87
2022-09-12T23:24:48.866Z,5.07
2022-09-12T23:29:41.591Z,4.70
2022-09-12T23:34:34.000Z,6.07
2022-09-12T23:39:27.090Z,4.80
2022-09-12T23:44:17.950Z,5.15
2022-09-12T23:49:09.152Z,5.03
2022-09-12T23:53:59.792Z,6.57
2022-09-12T23:58:53.044Z,5.95
